Time,TemperatureF,DewpointF,PressureIn,WindDirection,WindDirectionDegrees,WindSpeedMPH,WindSpeedGustMPH,Humidity,HourlyPrecipIn,Conditions,Clouds,dailyrainin,SoftwareType,DateUTC
2013-03-18 00:00:00,14.8,-2.3,30.29,SW,226,1.0,3.0,46,0.00,,,0.00,Wunderground v.1.15,2013-03-18 04:00:00,
2013-03-18 00:05:00,15.0,-2.6,30.29,NNE,25,1.0,6.0,45,0.00,,,0.00,Wunderground v.1.15,2013-03-18 04:05:00,
2013-03-18 00:10:00,15.1,-2.5,30.29,North,352,1.0,1.0,45,0.00,,,0.00,Wunderground v.1.15,2013-03-18 04:10:00,
2013-03-18 00:15:00,14.9,-2.6,30.29,NNE,29,1.0,2.0,45,0.00,,,0.00,Wunderground v.1.15,2013-03-18 04:15:00,
2013-03-18 00:20:00,14.8,-2.7,30.29,SE,146,1.0,3.0,45,0.00,,,0.00,Wunderground v.1.15,2013-03-18 04:20:00,
2013-03-18 00:25:00,14.8,-2.7,30.29,West,267,2.0,3.0,45,0.00,,,0.00,Wunderground v.1.15,2013-03-18 04:25:00,
2013-03-18 00:30:00,14.8,-2.7,30.29,SW,224,1.0,1.0,45,0.00,,,0.00,Wunderground v.1.15,2013-03-18 04:30:00,
2013-03-18 00:35:00,14.8,-2.7,30.29,NE,36,1.0,2.0,45,0.00,,,0.00,Wunderground v.1.15,2013-03-18 04:35:00,
2013-03-18 00:40:00,14.9,-3.1,30.30,SE,144,2.0,2.0,44,0.00,,,0.00,Wunderground v.1.15,2013-03-18 04:40:00,
2013-03-18 00:50:00,15.0,-3.0,30.29,NNE,20,2.0,3.0,44,0.00,,,0.00,Wunderground v.1.15,2013-03-18 04:50:00,
2013-03-18 00:55:00,15.0,-3.0,30.30,West,260,2.0,3.0,44,0.00,,,0.00,Wunderground v.1.15,2013-03-18 04:55:00,
2013-03-18 01:05:00,14.8,-3.2,30.29,ESE,122,1.0,1.0,44,0.00,,,0.00,Wunderground v.1.15,2013-03-18 05:05:00,
2013-03-18 01:10:00,14.7,-2.8,30.30,West,260,1.0,1.0,45,0.00,,,0.00,Wunderground v.1.15,2013-03-18 05:10:00,
2013-03-18 01:20:00,14.8,-3.2,30.32,SE,128,2.0,3.0,44,0.00,,,0.00,Wunderground v.1.15,2013-03-18 05:20:00,
2013-03-18 01:30:00,14.7,-3.3,30.32,NNE,23,2.0,2.0,44,0.00,,,0.00,Wunderground v.1.15,2013-03-18 05:30:00,
2013-03-18 01:40:00,14.4,-2.2,30.32,NW,305,1.0,1.0,47,0.00,,,0.00,Wunderground v.1.15,2013-03-18 05:40:00,
2013-03-18 01:45:00,14.2,-3.3,30.32,WNW,299,0.0,1.0,45,0.00,,,0.00,Wunderground v.1.15,2013-03-18 05:45:00,
2013-03-18 01:50:00,14.1,-2.9,30.33,NNW,328,0.0,0.0,46,0.00,,,0.00,Wunderground v.1.15,2013-03-18 05:50:00,
2013-03-18 02:00:00,13.9,-2.2,30.33,NNW,330,1.0,3.0,48,0.00,,,0.00,Wunderground v.1.15,2013-03-18 06:00:00,
2013-03-18 02:05:00,14.0,-2.1,30.33,West,262,2.0,3.0,48,0.00,,,0.00,Wunderground v.1.15,2013-03-18 06:05:00,
2013-03-18 02:15:00,13.9,-1.8,30.33,NW,314,1.0,2.0,49,0.00,,,0.00,Wunderground v.1.15,2013-03-18 06:15:00,
2013-03-18 02:20:00,14.0,-2.6,30.33,NNW,332,2.0,2.0,47,0.00,,,0.00,Wunderground v.1.15,2013-03-18 06:20:00,
2013-03-18 02:25:00,14.0,-2.6,30.33,NNW,344,2.0,4.0,47,0.00,,,0.00,Wunderground v.1.15,2013-03-18 06:25:00,
2013-03-18 02:35:00,13.4,-1.8,30.34,NNW,334,3.0,3.0,50,0.00,,,0.00,Wunderground v.1.15,2013-03-18 06:35:00,
2013-03-18 02:45:00,12.7,-2.5,30.34,NNW,328,4.0,5.0,50,0.00,,,0.00,Wunderground v.1.15,2013-03-18 06:45:00,
2013-03-18 02:50:00,12.5,-2.2,30.34,NNE,16,4.0,7.0,51,0.00,,,0.00,Wunderground v.1.15,2013-03-18 06:50:00,
2013-03-18 03:00:00,12.4,-1.9,30.33,NNW,345,4.0,4.0,52,0.00,,,0.00,Wunderground v.1.15,2013-03-18 07:00:00,
2013-03-18 03:10:00,12.0,-2.7,30.33,NW,316,5.0,5.0,51,0.00,,,0.00,Wunderground v.1.15,2013-03-18 07:10:00,
2013-03-18 03:20:00,12.1,-2.6,30.33,NW,311,5.0,5.0,51,0.00,,,0.00,Wunderground v.1.15,2013-03-18 07:20:00,
2013-03-18 03:25:00,12.3,-2.8,30.33,NNW,335,4.0,5.0,50,0.00,,,0.00,Wunderground v.1.15,2013-03-18 07:25:00,
2013-03-18 03:35:00,12.7,-2.5,30.33,NW,312,3.0,5.0,50,0.00,,,0.00,Wunderground v.1.15,2013-03-18 07:35:00,
2013-03-18 03:40:00,13.0,-2.6,30.33,NNW,333,3.0,3.0,49,0.00,,,0.00,Wunderground v.1.15,2013-03-18 07:40:00,
2013-03-18 03:50:00,13.2,-2.9,30.33,NNW,344,2.0,2.0,48,0.00,,,0.00,Wunderground v.1.15,2013-03-18 07:50:00,
2013-03-18 04:00:00,13.2,-2.4,30.33,NW,311,1.0,1.0,49,0.00,,,0.00,Wunderground v.1.15,2013-03-18 08:00:00,
2013-03-18 04:10:00,13.2,-2.4,30.33,NE,54,1.0,3.0,49,0.00,,,0.00,Wunderground v.1.15,2013-03-18 08:10:00,
2013-03-18 04:15:00,13.1,-2.5,30.33,WNW,300,1.0,3.0,49,0.00,,,0.00,Wunderground v.1.15,2013-03-18 08:15:00,
2013-03-18 04:20:00,13.2,-2.4,30.33,ENE,68,1.0,4.0,49,0.00,,,0.00,Wunderground v.1.15,2013-03-18 08:20:00,
2013-03-18 04:30:00,13.2,-2.4,30.33,SW,217,1.0,2.0,49,0.00,,,0.00,Wunderground v.1.15,2013-03-18 08:30:00,
2013-03-18 04:35:00,13.0,-1.8,30.34,SSW,208,1.0,2.0,51,0.00,,,0.00,Wunderground v.1.15,2013-03-18 08:35:00,
2013-03-18 04:45:00,13.1,-1.7,30.34,South,174,2.0,2.0,51,0.00,,,0.00,Wunderground v.1.15,2013-03-18 08:45:00,
2013-03-18 04:50:00,13.1,-1.7,30.35,South,188,2.0,2.0,51,0.00,,,0.00,Wunderground v.1.15,2013-03-18 08:50:00,
2013-03-18 05:00:00,13.2,-2.0,30.35,South,176,2.0,4.0,50,0.00,,,0.00,Wunderground v.1.15,2013-03-18 09:00:00,
2013-03-18 05:05:00,13.3,-2.3,30.35,SE,142,2.0,4.0,49,0.00,,,0.00,Wunderground v.1.15,2013-03-18 09:05:00,
2013-03-18 05:10:00,13.1,-1.3,30.35,SSE,159,2.0,2.0,52,0.00,,,0.00,Wunderground v.1.15,2013-03-18 09:10:00,
2013-03-18 05:20:00,12.9,-1.9,30.36,East,91,1.0,1.0,51,0.00,,,0.00,Wunderground v.1.15,2013-03-18 09:20:00,
2013-03-18 05:30:00,12.3,-2.0,30.37,SSE,154,1.0,2.0,52,0.00,,,0.00,Wunderground v.1.15,2013-03-18 09:30:00,
2013-03-18 05:35:00,12.7,-2.0,30.37,SSW,201,2.0,2.0,51,0.00,,,0.00,Wunderground v.1.15,2013-03-18 09:35:00,
2013-03-18 05:40:00,12.7,-2.0,30.38,SE,145,2.0,2.0,51,0.00,,,0.00,Wunderground v.1.15,2013-03-18 09:40:00,
2013-03-18 05:50:00,12.1,-1.4,30.39,ESE,105,1.0,1.0,54,0.00,,,0.00,Wunderground v.1.15,2013-03-18 09:50:00,
2013-03-18 05:55:00,12.5,-1.8,30.39,SSE,154,1.0,1.0,52,0.00,,,0.00,Wunderground v.1.15,2013-03-18 09:55:00,
2013-03-18 06:05:00,12.5,-1.8,30.39,SE,139,1.0,2.0,52,0.00,,,0.00,Wunderground v.1.15,2013-03-18 10:05:00,
2013-03-18 06:10:00,12.0,-1.1,30.40,NNE,20,1.0,1.0,55,0.00,,,0.00,Wunderground v.1.15,2013-03-18 10:10:00,
2013-03-18 06:15:00,11.4,-0.5,30.39,North,1,1.0,1.0,58,0.00,,,0.00,Wunderground v.1.15,2013-03-18 10:15:00,
2013-03-18 06:20:00,11.2,-1.1,30.39,North,352,0.0,1.0,57,0.00,,,0.00,Wunderground v.1.15,2013-03-18 10:20:00,
2013-03-18 06:30:00,11.0,-1.7,30.39,SE,139,0.0,0.0,56,0.00,,,0.00,Wunderground v.1.15,2013-03-18 10:30:00,
2013-03-18 06:35:00,11.0,-2.0,30.40,NNW,338,1.0,1.0,55,0.00,,,0.00,Wunderground v.1.15,2013-03-18 10:35:00,
2013-03-18 06:45:00,10.5,-2.1,30.40,NNW,339,0.0,1.0,56,0.00,,,0.00,Wunderground v.1.15,2013-03-18 10:45:00,
2013-03-18 06:55:00,10.3,-1.2,30.41,NNW,340,1.0,1.0,59,0.00,,,0.00,Wunderground v.1.15,2013-03-18 10:55:00,
2013-03-18 07:00:00,10.2,-1.7,30.41,NNW,340,1.0,1.0,58,0.00,,,0.00,Wunderground v.1.15,2013-03-18 11:00:00,
2013-03-18 07:10:00,10.2,-1.7,30.42,NNW,342,1.0,1.0,58,0.00,,,0.00,Wunderground v.1.15,2013-03-18 11:10:00,
2013-03-18 07:20:00,10.5,-1.8,30.42,NE,37,0.0,0.0,57,0.00,,,0.00,Wunderground v.1.15,2013-03-18 11:20:00,
2013-03-18 07:25:00,10.7,-1.6,30.42,North,8,0.0,0.0,57,0.00,,,0.00,Wunderground v.1.15,2013-03-18 11:25:00,
2013-03-18 07:35:00,11.2,-0.7,30.42,North,8,0.0,0.0,58,0.00,,,0.00,Wunderground v.1.15,2013-03-18 11:35:00,
2013-03-18 07:40:00,11.4,-0.9,30.42,SSW,203,0.0,0.0,57,0.00,,,0.00,Wunderground v.1.15,2013-03-18 11:40:00,
2013-03-18 07:50:00,12.2,-1.3,30.42,WNW,295,0.0,0.0,54,0.00,,,0.00,Wunderground v.1.15,2013-03-18 11:50:00,
2013-03-18 08:00:00,13.4,-0.2,30.42,West,281,0.0,0.0,54,0.00,,,0.00,Wunderground v.1.15,2013-03-18 12:00:00,
2013-03-18 08:05:00,14.3,-0.1,30.42,SSW,194,0.0,2.0,52,0.00,,,0.00,Wunderground v.1.15,2013-03-18 12:05:00,
2013-03-18 08:15:00,15.6,0.2,30.42,SSW,197,0.0,2.0,50,0.00,,,0.00,Wunderground v.1.15,2013-03-18 12:15:00,
2013-03-18 08:20:00,16.3,0.5,30.42,NW,304,0.0,0.0,49,0.00,,,0.00,Wunderground v.1.15,2013-03-18 12:20:00,
2013-03-18 08:25:00,16.6,-0.2,30.42,WSW,252,1.0,1.0,47,0.00,,,0.00,Wunderground v.1.15,2013-03-18 12:25:00,
2013-03-18 08:35:00,17.7,0.4,30.42,NNW,344,1.0,1.0,46,0.00,,,0.00,Wunderground v.1.15,2013-03-18 12:35:00,
2013-03-18 08:40:00,17.8,-1.5,30.42,SE,128,1.0,3.0,42,0.00,,,0.00,Wunderground v.1.15,2013-03-18 12:40:00,
2013-03-18 08:50:00,19.0,-0.4,30.42,SSE,149,1.0,4.0,42,0.00,,,0.00,Wunderground v.1.15,2013-03-18 12:50:00,
2013-03-18 08:55:00,19.6,-0.3,30.41,SE,143,1.0,4.0,41,0.00,,,0.00,Wunderground v.1.15,2013-03-18 12:55:00,
2013-03-18 09:05:00,20.1,-0.9,30.41,WSW,239,2.0,2.0,39,0.00,,,0.00,Wunderground v.1.15,2013-03-18 13:05:00,
2013-03-18 09:10:00,20.5,0.0,30.41,SE,128,2.0,2.0,40,0.00,,,0.00,Wunderground v.1.15,2013-03-18 13:10:00,
2013-03-18 09:20:00,21.0,-0.7,30.41,West,259,2.0,2.0,38,0.00,,,0.00,Wunderground v.1.15,2013-03-18 13:20:00,
2013-03-18 09:25:00,21.5,-0.2,30.41,West,264,2.0,2.0,38,0.00,,,0.00,Wunderground v.1.15,2013-03-18 13:25:00,
2013-03-18 09:30:00,21.5,-1.4,30.41,ENE,61,2.0,6.0,36,0.00,,,0.00,Wunderground v.1.15,2013-03-18 13:30:00,
2013-03-18 09:40:00,21.7,-1.8,30.42,NNW,346,2.0,3.0,35,0.00,,,0.00,Wunderground v.1.15,2013-03-18 13:40:00,
2013-03-18 09:45:00,21.8,-0.5,30.42,SE,128,2.0,3.0,37,0.00,,,0.00,Wunderground v.1.15,2013-03-18 13:45:00,
2013-03-18 09:55:00,22.2,-2.0,30.42,SSE,155,2.0,3.0,34,0.00,,,0.00,Wunderground v.1.15,2013-03-18 13:55:00,
2013-03-18 10:00:00,22.5,-0.5,30.42,NW,307,2.0,2.0,36,0.00,,,0.00,Wunderground v.1.15,2013-03-18 14:00:00,
2013-03-18 10:10:00,22.7,-1.5,30.41,NW,319,2.0,5.0,34,0.00,,,0.00,Wunderground v.1.15,2013-03-18 14:10:00,
2013-03-18 10:15:00,22.9,-1.3,30.41,WSW,243,2.0,5.0,34,0.00,,,0.00,Wunderground v.1.15,2013-03-18 14:15:00,
2013-03-18 10:25:00,24.1,-0.9,30.41,SW,226,2.0,2.0,33,0.00,,,0.00,Wunderground v.1.15,2013-03-18 14:25:00,
2013-03-18 10:30:00,23.8,0.7,30.40,SE,135,2.0,3.0,36,0.00,,,0.00,Wunderground v.1.15,2013-03-18 14:30:00,
2013-03-18 10:40:00,24.4,-1.3,30.40,South,176,1.0,3.0,32,0.00,,,0.00,Wunderground v.1.15,2013-03-18 14:40:00,
2013-03-18 10:45:00,24.8,-1.6,30.41,NNW,330,2.0,3.0,31,0.00,,,0.00,Wunderground v.1.15,2013-03-18 14:45:00,
2013-03-18 10:50:00,25.1,-0.7,30.40,SE,136,2.0,3.0,32,0.00,,,0.00,Wunderground v.1.15,2013-03-18 14:50:00,
2013-03-18 11:00:00,25.1,-2.0,30.40,SE,138,4.0,4.0,30,0.00,,,0.00,Wunderground v.1.15,2013-03-18 15:00:00,
2013-03-18 11:05:00,25.7,-0.1,30.39,SSE,155,4.0,11.0,32,0.00,,,0.00,Wunderground v.1.15,2013-03-18 15:05:00,
2013-03-18 11:15:00,26.5,0.6,30.40,SE,136,4.0,4.0,32,0.00,,,0.00,Wunderground v.1.15,2013-03-18 15:15:00,
2013-03-18 11:20:00,26.6,-0.7,30.39,SE,145,3.0,8.0,30,0.00,,,0.00,Wunderground v.1.15,2013-03-18 15:20:00,
2013-03-18 11:25:00,26.6,0.7,30.39,SW,231,3.0,8.0,32,0.00,,,0.00,Wunderground v.1.15,2013-03-18 15:25:00,
2013-03-18 11:35:00,26.7,-0.6,30.39,SSW,201,3.0,3.0,30,0.00,,,0.00,Wunderground v.1.15,2013-03-18 15:35:00,
2013-03-18 11:40:00,26.8,-0.5,30.39,SW,229,5.0,5.0,30,0.00,,,0.00,Wunderground v.1.15,2013-03-18 15:40:00,
2013-03-18 11:50:00,27.4,0.7,30.38,SSW,211,4.0,4.0,31,0.00,,,0.00,Wunderground v.1.15,2013-03-18 15:50:00,
2013-03-18 11:55:00,27.6,0.2,30.38,SW,227,4.0,4.0,30,0.00,,,0.00,Wunderground v.1.15,2013-03-18 15:55:00,
2013-03-18 12:00:00,27.7,0.2,30.38,SE,128,4.0,4.0,30,0.00,,,0.00,Wunderground v.1.15,2013-03-18 16:00:00,
2013-03-18 12:10:00,28.1,-0.1,30.38,SE,145,4.0,4.0,29,0.00,,,0.00,Wunderground v.1.15,2013-03-18 16:10:00,
2013-03-18 12:15:00,28.4,0.1,30.38,South,171,4.0,4.0,29,0.00,,,0.00,Wunderground v.1.15,2013-03-18 16:15:00,
2013-03-18 12:25:00,28.8,0.5,30.38,SSE,156,4.0,4.0,29,0.00,,,0.00,Wunderground v.1.15,2013-03-18 16:25:00,
2013-03-18 12:30:00,29.4,1.0,30.38,SE,131,4.0,6.0,29,0.00,,,0.00,Wunderground v.1.15,2013-03-18 16:30:00,
2013-03-18 12:40:00,30.3,0.3,30.38,West,260,3.0,3.0,27,0.00,,,0.00,Wunderground v.1.15,2013-03-18 16:40:00,
2013-03-18 12:45:00,30.5,0.4,30.37,East,93,3.0,3.0,27,0.00,,,0.00,Wunderground v.1.15,2013-03-18 16:45:00,
2013-03-18 12:55:00,31.2,-1.5,30.37,NNW,337,2.0,6.0,24,0.00,,,0.00,Wunderground v.1.15,2013-03-18 16:55:00,
2013-03-18 13:00:00,31.5,-1.2,30.36,SSW,195,3.0,4.0,24,0.00,,,0.00,Wunderground v.1.15,2013-03-18 17:00:00,
2013-03-18 13:10:00,32.1,0.2,30.36,SSW,207,3.0,3.0,25,0.00,,,0.00,Wunderground v.1.15,2013-03-18 17:10:00,
2013-03-18 13:15:00,32.3,-0.5,30.36,SE,143,3.0,8.0,24,0.00,,,0.00,Wunderground v.1.15,2013-03-18 17:15:00,
2013-03-18 13:20:00,32.6,-0.3,30.36,SSW,208,3.0,3.0,24,0.00,,,0.00,Wunderground v.1.15,2013-03-18 17:20:00,
2013-03-18 13:30:00,32.6,-0.3,30.35,SE,136,2.0,6.0,24,0.00,,,0.00,Wunderground v.1.15,2013-03-18 17:30:00,
2013-03-18 13:35:00,33.1,0.2,30.35,WSW,257,3.0,6.0,24,0.00,,,0.00,Wunderground v.1.15,2013-03-18 17:35:00,
2013-03-18 13:45:00,33.4,-0.5,30.34,SSE,150,3.0,5.0,23,0.00,,,0.00,Wunderground v.1.15,2013-03-18 17:45:00,
2013-03-18 13:50:00,33.8,0.8,30.33,SSE,165,4.0,5.0,24,0.00,,,0.00,Wunderground v.1.15,2013-03-18 17:50:00,
2013-03-18 14:00:00,33.8,0.8,30.33,South,169,4.0,4.0,24,0.00,,,0.00,Wunderground v.1.15,2013-03-18 18:00:00,
2013-03-18 14:05:00,34.1,1.0,30.33,West,272,4.0,4.0,24,0.00,,,0.00,Wunderground v.1.15,2013-03-18 18:05:00,
2013-03-18 14:15:00,34.3,2.1,30.33,SE,145,4.0,11.0,25,0.00,,,0.00,Wunderground v.1.15,2013-03-18 18:15:00,
2013-03-18 14:20:00,34.5,1.4,30.32,ESE,122,3.0,3.0,24,0.00,,,0.00,Wunderground v.1.15,2013-03-18 18:20:00,
2013-03-18 14:30:00,35.0,1.8,30.32,NNE,15,3.0,3.0,24,0.00,,,0.00,Wunderground v.1.15,2013-03-18 18:30:00,
2013-03-18 14:35:00,35.1,0.0,30.32,SW,220,2.0,4.0,22,0.00,,,0.00,Wunderground v.1.15,2013-03-18 18:35:00,
2013-03-18 14:40:00,34.8,0.7,30.31,SW,235,3.0,5.0,23,0.00,,,0.00,Wunderground v.1.15,2013-03-18 18:40:00,
2013-03-18 14:50:00,35.4,1.2,30.31,SW,215,2.0,2.0,23,0.00,,,0.00,Wunderground v.1.15,2013-03-18 18:50:00,
2013-03-18 14:55:00,34.8,0.7,30.31,ESE,120,4.0,4.0,23,0.00,,,0.00,Wunderground v.1.15,2013-03-18 18:55:00,
2013-03-18 15:05:00,35.3,2.0,30.30,South,191,4.0,5.0,24,0.00,,,0.00,Wunderground v.1.15,2013-03-18 19:05:00,
2013-03-18 15:15:00,35.5,-1.7,30.30,NE,39,2.0,3.0,20,0.00,,,0.00,Wunderground v.1.15,2013-03-18 19:15:00,
2013-03-18 15:20:00,35.3,2.0,30.29,West,278,2.0,2.0,24,0.00,,,0.00,Wunderground v.1.15,2013-03-18 19:20:00,
2013-03-18 15:25:00,36.0,2.6,30.30,WNW,299,2.0,2.0,24,0.00,,,0.00,Wunderground v.1.15,2013-03-18 19:25:00,
2013-03-18 15:30:00,35.3,0.2,30.30,North,357,2.0,2.0,22,0.00,,,0.00,Wunderground v.1.15,2013-03-18 19:30:00,
2013-03-18 15:40:00,35.5,-0.7,30.29,SW,219,2.0,5.0,21,0.00,,,0.00,Wunderground v.1.15,2013-03-18 19:40:00,
2013-03-18 15:50:00,35.6,-0.6,30.28,SSE,163,3.0,3.0,21,0.00,,,0.00,Wunderground v.1.15,2013-03-18 19:50:00,
2013-03-18 15:55:00,35.4,-1.8,30.28,South,183,3.0,3.0,20,0.00,,,0.00,Wunderground v.1.15,2013-03-18 19:55:00,
2013-03-18 16:05:00,35.4,1.2,30.28,SSE,152,2.0,3.0,23,0.00,,,0.00,Wunderground v.1.15,2013-03-18 20:05:00,
2013-03-18 16:10:00,35.3,-0.8,30.27,SSE,150,2.0,2.0,21,0.00,,,0.00,Wunderground v.1.15,2013-03-18 20:10:00,
2013-03-18 16:20:00,35.4,-0.7,30.27,SSE,162,2.0,2.0,21,0.00,,,0.00,Wunderground v.1.15,2013-03-18 20:20:00,
2013-03-18 16:25:00,35.3,0.2,30.27,ESE,113,2.0,2.0,22,0.00,,,0.00,Wunderground v.1.15,2013-03-18 20:25:00,
2013-03-18 16:35:00,35.5,-0.7,30.27,SSW,193,2.0,3.0,21,0.00,,,0.00,Wunderground v.1.15,2013-03-18 20:35:00,
2013-03-18 16:40:00,35.5,-1.7,30.27,SE,135,2.0,2.0,20,0.00,,,0.00,Wunderground v.1.15,2013-03-18 20:40:00,
2013-03-18 16:50:00,34.9,-0.2,30.27,SSE,159,2.0,2.0,22,0.00,,,0.00,Wunderground v.1.15,2013-03-18 20:50:00,
2013-03-18 16:55:00,34.9,0.8,30.27,SSE,160,1.0,2.0,23,0.00,,,0.00,Wunderground v.1.15,2013-03-18 20:55:00,
2013-03-18 17:05:00,34.5,-0.5,30.27,SSW,210,2.0,2.0,22,0.00,,,0.00,Wunderground v.1.15,2013-03-18 21:05:00,
2013-03-18 17:15:00,34.2,-0.8,30.27,SE,146,2.0,2.0,22,0.00,,,0.00,Wunderground v.1.15,2013-03-18 21:15:00,
2013-03-18 17:20:00,34.3,-0.7,30.27,SE,136,1.0,1.0,22,0.00,,,0.00,Wunderground v.1.15,2013-03-18 21:20:00,
2013-03-18 17:30:00,34.0,-0.9,30.26,SE,141,1.0,2.0,22,0.00,,,0.00,Wunderground v.1.15,2013-03-18 21:30:00,
2013-03-18 17:35:00,33.7,1.5,30.26,SE,124,1.0,2.0,25,0.00,,,0.00,Wunderground v.1.15,2013-03-18 21:35:00,
2013-03-18 17:40:00,33.6,1.5,30.26,SE,141,1.0,1.0,25,0.00,,,0.00,Wunderground v.1.15,2013-03-18 21:40:00,
2013-03-18 17:50:00,33.3,0.3,30.26,SE,126,0.0,1.0,24,0.00,,,0.00,Wunderground v.1.15,2013-03-18 21:50:00,
2013-03-18 17:55:00,33.2,-0.7,30.25,SE,127,1.0,1.0,23,0.00,,,0.00,Wunderground v.1.15,2013-03-18 21:55:00,
2013-03-18 18:00:00,33.1,-0.8,30.25,SE,127,0.0,1.0,23,0.00,,,0.00,Wunderground v.1.15,2013-03-18 22:00:00,
2013-03-18 18:05:00,32.9,0.9,30.25,SE,125,0.0,1.0,25,0.00,,,0.00,Wunderground v.1.15,2013-03-18 22:05:00,
2013-03-18 18:15:00,32.5,1.4,30.25,ESE,122,1.0,1.0,26,0.00,,,0.00,Wunderground v.1.15,2013-03-18 22:15:00,
2013-03-18 18:20:00,32.4,1.3,30.25,SE,125,0.0,0.0,26,0.00,,,0.00,Wunderground v.1.15,2013-03-18 22:20:00,
2013-03-18 18:30:00,32.1,1.0,30.25,SE,124,0.0,0.0,26,0.00,,,0.00,Wunderground v.1.15,2013-03-18 22:30:00,
2013-03-18 18:35:00,31.8,1.6,30.25,SE,124,0.0,0.0,27,0.00,,,0.00,Wunderground v.1.15,2013-03-18 22:35:00,
2013-03-18 18:45:00,31.1,3.2,30.25,ESE,120,0.0,0.0,30,0.00,,,0.00,Wunderground v.1.15,2013-03-18 22:45:00,
2013-03-18 18:50:00,30.6,2.8,30.25,ESE,120,0.0,0.0,30,0.00,,,0.00,Wunderground v.1.15,2013-03-18 22:50:00,
2013-03-18 19:00:00,30.0,3.0,30.25,ESE,117,0.0,0.0,31,0.00,,,0.00,Wunderground v.1.15,2013-03-18 23:00:00,
2013-03-18 19:05:00,29.7,7.7,30.25,ESE,117,0.0,0.0,39,0.00,,,0.00,Wunderground v.1.15,2013-03-18 23:05:00,
2013-03-18 19:15:00,29.2,6.1,30.25,ESE,117,0.0,0.0,37,0.00,,,0.00,Wunderground v.1.15,2013-03-18 23:15:00,
2013-03-18 19:20:00,29.2,6.1,30.25,ESE,113,0.0,0.0,37,0.00,,,0.00,Wunderground v.1.15,2013-03-18 23:20:00,
2013-03-18 19:25:00,29.3,4.4,30.24,East,82,0.0,0.0,34,0.00,,,0.00,Wunderground v.1.15,2013-03-18 23:25:00,
2013-03-18 19:35:00,29.0,5.9,30.25,East,82,0.0,0.0,37,0.00,,,0.00,Wunderground v.1.15,2013-03-18 23:35:00,
2013-03-18 19:40:00,28.6,6.7,30.25,East,82,0.0,0.0,39,0.00,,,0.00,Wunderground v.1.15,2013-03-18 23:40:00,
2013-03-18 19:50:00,28.1,6.3,30.25,East,79,0.0,0.0,39,0.00,,,0.00,Wunderground v.1.15,2013-03-18 23:50:00,
2013-03-18 19:55:00,28.0,6.2,30.25,ENE,77,0.0,0.0,39,0.00,,,0.00,Wunderground v.1.15,2013-03-18 23:55:00,
2013-03-18 20:05:00,28.1,7.4,30.25,NE,48,0.0,0.0,41,0.00,,,0.00,Wunderground v.1.15,2013-03-19 00:05:00,
2013-03-18 20:10:00,28.0,8.4,30.25,NE,39,0.0,0.0,43,0.00,,,0.00,Wunderground v.1.15,2013-03-19 00:10:00,
2013-03-18 20:20:00,27.7,7.0,30.25,NE,39,0.0,0.0,41,0.00,,,0.00,Wunderground v.1.15,2013-03-19 00:20:00,
2013-03-18 20:30:00,27.6,4.1,30.25,NE,40,0.0,0.0,36,0.00,,,0.00,Wunderground v.1.15,2013-03-19 00:30:00,
2013-03-18 20:40:00,27.4,8.8,30.25,NE,40,0.0,0.0,45,0.00,,,0.00,Wunderground v.1.15,2013-03-19 00:40:00,
2013-03-18 20:50:00,27.5,7.4,30.25,NE,40,0.0,0.0,42,0.00,,,0.00,Wunderground v.1.15,2013-03-19 00:50:00,
2013-03-18 20:55:00,27.5,8.4,30.25,NE,39,0.0,0.0,44,0.00,,,0.00,Wunderground v.1.15,2013-03-19 00:55:00,
2013-03-18 21:00:00,27.2,8.1,30.25,NE,39,0.0,0.0,44,0.00,,,0.00,Wunderground v.1.15,2013-03-19 01:00:00,
2013-03-18 21:05:00,27.1,7.5,30.25,NE,40,0.0,1.0,43,0.00,,,0.00,Wunderground v.1.15,2013-03-19 01:05:00,
2013-03-18 21:15:00,27.1,7.0,30.25,NE,40,0.0,1.0,42,0.00,,,0.00,Wunderground v.1.15,2013-03-19 01:15:00,
2013-03-18 21:20:00,27.2,11.9,30.25,North,6,0.0,0.0,52,0.00,,,0.00,Wunderground v.1.15,2013-03-19 01:20:00,
2013-03-18 21:30:00,27.2,13.6,30.26,SE,145,0.0,0.0,56,0.00,,,0.00,Wunderground v.1.15,2013-03-19 01:30:00,
2013-03-18 21:35:00,26.9,11.2,30.26,SE,138,0.0,0.0,51,0.00,,,0.00,Wunderground v.1.15,2013-03-19 01:35:00,
2013-03-18 21:45:00,27.4,9.8,30.25,NE,56,0.0,1.0,47,0.00,,,0.00,Wunderground v.1.15,2013-03-19 01:45:00,
2013-03-18 21:50:00,27.7,8.6,30.25,NE,56,0.0,0.0,44,0.00,,,0.00,Wunderground v.1.15,2013-03-19 01:50:00,
2013-03-18 22:00:00,27.5,11.3,30.26,NE,56,0.0,0.0,50,0.00,,,0.00,Wunderground v.1.15,2013-03-19 02:00:00,
2013-03-18 22:05:00,27.2,11.4,30.25,NE,56,0.0,0.0,51,0.00,,,0.00,Wunderground v.1.15,2013-03-19 02:05:00,
2013-03-18 22:10:00,27.0,12.1,30.25,ENE,57,0.0,0.0,53,0.00,,,0.00,Wunderground v.1.15,2013-03-19 02:10:00,
2013-03-18 22:20:00,27.0,8.5,30.25,ENE,58,0.0,0.0,45,0.00,,,0.00,Wunderground v.1.15,2013-03-19 02:20:00,
2013-03-18 22:25:00,27.3,7.7,30.26,NE,46,0.0,0.0,43,0.00,,,0.00,Wunderground v.1.15,2013-03-19 02:25:00,
2013-03-18 22:35:00,27.6,15.1,30.26,NNW,347,0.0,0.0,59,0.00,,,0.00,Wunderground v.1.15,2013-03-19 02:35:00,
2013-03-18 22:40:00,27.4,11.2,30.26,NNW,347,0.0,0.0,50,0.00,,,0.00,Wunderground v.1.15,2013-03-19 02:40:00,
2013-03-18 22:45:00,27.6,10.0,30.26,NE,38,0.0,0.0,47,0.00,,,0.00,Wunderground v.1.15,2013-03-19 02:45:00,
2013-03-18 22:55:00,27.6,13.1,30.26,NE,38,0.0,0.0,54,0.00,,,0.00,Wunderground v.1.15,2013-03-19 02:55:00,
2013-03-18 23:00:00,27.5,9.9,30.25,NE,38,0.0,0.0,47,0.00,,,0.00,Wunderground v.1.15,2013-03-19 03:00:00,
2013-03-18 23:05:00,27.6,9.5,30.25,SE,129,0.0,0.0,46,0.00,,,0.00,Wunderground v.1.15,2013-03-19 03:05:00,
2013-03-18 23:10:00,27.7,9.6,30.24,ESE,116,0.0,0.0,46,0.00,,,0.00,Wunderground v.1.15,2013-03-19 03:10:00,
2013-03-18 23:20:00,27.7,11.0,30.24,SE,134,0.0,0.0,49,0.00,,,0.00,Wunderground v.1.15,2013-03-19 03:20:00,
2013-03-18 23:25:00,27.6,9.5,30.24,ESE,123,0.0,0.0,46,0.00,,,0.00,Wunderground v.1.15,2013-03-19 03:25:00,
2013-03-18 23:30:00,27.6,9.5,30.24,ESE,115,0.0,0.0,46,0.00,,,0.00,Wunderground v.1.15,2013-03-19 03:30:00,
2013-03-18 23:35:00,27.6,9.5,30.24,ESE,115,0.0,0.0,46,0.00,,,0.00,Wunderground v.1.15,2013-03-19 03:35:00,
2013-03-18 23:45:00,27.7,10.1,30.24,ESE,114,0.0,0.0,47,0.00,,,0.00,Wunderground v.1.15,2013-03-19 03:45:00,
2013-03-18 23:50:00,27.6,10.4,30.24,SSE,149,0.0,0.0,48,0.00,,,0.00,Wunderground v.1.15,2013-03-19 03:50:00,
2013-03-18 23:55:00,27.6,11.4,30.23,ESE,109,0.0,1.0,50,0.00,,,0.00,Wunderground v.1.15,2013-03-19 03:55:00,